KDIK/DIK METAR and TAF weather

Enter ICAO airport designator
Station Type Date Time Source
KDIK METAR 2018/07/16 23:56 UTC NOAA

KDIK 162356Z AUTO 08007KT 10SM FEW080 27/14 A3006 RMK AO2 SLP166 T02720144 10294 20261 56006


Station Type Date Time Source
KDIK Decoded METAR 2018/07/16 23:56 UTC NOAA

THEODORE ROOSEVELT REGIONAL, ND, United States (KDIK) 46-48N 102-48W 788M
Jul 16, 2018 - 07:56 PM EDT / 2018.07.16 2356 UTC
Wind: from the E (080 degrees) at 8 MPH (7 KT):0
Visibility: 10 mile(s):0
Sky conditions: mostly clear
Temperature: 81.0 F (27.2 C)
Dew Point: 57.9 F (14.4 C)
Relative Humidity: 45%
Pressure (altimeter): 30.06 in. Hg (1017 hPa)
Pressure tendency: 0.02 inches (0.6 hPa) lower than three hours ago
ob: KDIK 162356Z AUTO 08007KT 10SM FEW080 27/14 A3006 RMK AO2 SLP166 T02720144 10294 20261 56006
cycle: 0

Station Type Date Time Source
KDIK TAF 2018/07/16 18:22 UTC NOAA

TAF KDIK 161720Z 1618/1718 06005KT P6SM SKC


Example: see airport list